Big Brook, New York
Current Conditions -  °F | °C
As of 8:07 PM on Monday 24 Nov 2014 (Local Time) from KRME Reporting Station
Heavy Rain Heavy Rain  
Wind Chill: 57°   Ceiling: 5500
Heat Index: 57°   Visibility: 3mi
Dew Point: 52°   Wind: 14mph
Humidity: 83%   Direction: 260°W
Pressure: 29.54"   Gusts: 44mph
Location:  43.3503°N, 75.3224°W
Report Text: KRME 250107Z 26012G38KT 3SM +RA SCT043 BKN055 BKN070 14/11 A2954 RMK AO2 PK WND 29038/0100 WSHFT 0047 RAB00 P0006 T01390111
Loading
Personal Weather Stations






























Interactive Weather Map New forecast layout! Learn more

10-Day Weather Forecast

Advertisements
Track Severe Weather on mobile